Time;durP1;ratioP1;P1;durP2;ratioP2;P2;SDS_P1;SDS_P2;PMS_P1;PMS_P2;Temp;Humidity;BMP_temperature;BMP_pressure;BME280_temperature;BME280_humidity;BME280_pressure;Samples;Min_cycle;Max_cycle;Signal;HPM_P1;HPM_P2
2021/09/13 00:00:56;;;;;;;13.77;5.00;;;14.80;91.30;;;;;;4971462;28;20179;-88
2021/09/13 00:03:22;;;;;;;15.38;4.82;;;14.80;91.20;;;;;;4971532;28;20643;-88
2021/09/13 00:05:48;;;;;;;9.13;4.60;;;14.80;91.30;;;;;;4972451;28;20258;-88
2021/09/13 00:08:13;;;;;;;11.38;5.22;;;14.80;91.30;;;;;;4971203;28;20273;-88
2021/09/13 00:10:42;;;;;;;10.20;4.80;;;14.80;91.40;;;;;;4971069;28;20183;-88
2021/09/13 00:13:08;;;;;;;12.82;5.53;;;14.70;91.60;;;;;;4971043;28;20221;-88
2021/09/13 00:15:36;;;;;;;11.88;5.45;;;14.80;91.70;;;;;;4972096;28;20635;-88
2021/09/13 00:18:17;;;;;;;13.17;6.50;;;14.80;91.80;;;;;;4971084;28;20179;-88
2021/09/13 00:20:42;;;;;;;13.00;6.33;;;14.80;91.80;;;;;;4971111;28;20178;-88
2021/09/13 00:23:11;;;;;;;12.17;5.80;;;14.80;92.00;;;;;;4970844;28;20297;-88
2021/09/13 00:25:37;;;;;;;10.27;5.28;;;14.80;91.90;;;;;;4970700;28;20269;-88
2021/09/13 00:28:05;;;;;;;11.88;5.75;;;14.80;91.90;;;;;;4972347;28;20261;-88
2021/09/13 00:30:37;;;;;;;12.13;6.43;;;14.90;92.00;;;;;;4971176;28;20784;-88
2021/09/13 00:33:10;;;;;;;11.60;6.70;;;14.90;91.90;;;;;;4971003;28;20583;-88
2021/09/13 00:35:36;;;;;;;11.98;6.63;;;15.00;91.90;;;;;;4971115;28;20171;-88
2021/09/13 00:38:08;;;;;;;11.27;6.60;;;14.90;92.00;;;;;;4971337;28;20190;-89
2021/09/13 00:40:34;;;;;;;14.43;6.97;;;14.90;92.10;;;;;;4971101;28;20327;-88
2021/09/13 00:43:02;;;;;;;13.32;6.85;;;14.90;92.20;;;;;;4972015;28;20289;-87
2021/09/13 00:45:27;;;;;;;10.65;6.40;;;14.90;92.20;;;;;;4972380;28;20186;-88
2021/09/13 00:47:53;;;;;;;16.05;6.57;;;14.90;92.20;;;;;;4970607;28;20563;-88
2021/09/13 00:50:19;;;;;;;12.52;7.30;;;14.90;92.20;;;;;;4970521;28;20228;-87
2021/09/13 00:52:50;;;;;;;14.95;7.00;;;14.90;92.10;;;;;;4970292;28;20733;-88
2021/09/13 00:55:16;;;;;;;15.93;7.18;;;14.90;92.20;;;;;;4970591;28;20175;-88
2021/09/13 00:57:42;;;;;;;15.18;8.15;;;14.90;92.20;;;;;;4971651;28;20712;-88
2021/09/13 01:00:09;;;;;;;20.40;7.25;;;14.90;92.30;;;;;;4970418;28;20631;-88
2021/09/13 01:02:38;;;;;;;22.77;7.70;;;14.80;92.40;;;;;;4970346;28;20203;-88
2021/09/13 01:05:04;;;;;;;15.50;8.43;;;14.80;92.30;;;;;;4970415;28;20186;-88
2021/09/13 01:07:31;;;;;;;12.48;7.70;;;14.90;92.20;;;;;;4970754;28;20724;-88
2021/09/13 01:09:58;;;;;;;16.60;8.27;;;14.90;92.10;;;;;;4973834;28;20179;-88
2021/09/13 01:12:24;;;;;;;12.17;8.10;;;14.90;92.30;;;;;;4974825;28;20213;-89
2021/09/13 01:14:50;;;;;;;14.20;8.63;;;14.90;92.40;;;;;;4974906;28;20171;-88
2021/09/13 01:17:15;;;;;;;18.75;8.15;;;14.90;92.40;;;;;;4974972;28;20220;-88
2021/09/13 01:19:44;;;;;;;14.13;7.82;;;14.90;92.50;;;;;;4973719;28;20186;-89
2021/09/13 01:22:12;;;;;;;23.42;7.70;;;14.90;92.40;;;;;;4974755;28;20657;-89
2021/09/13 01:24:41;;;;;;;13.55;7.32;;;14.90;92.40;;;;;;4973640;28;20231;-89
2021/09/13 01:27:09;;;;;;;16.33;7.93;;;14.90;92.40;;;;;;4973636;28;20183;-89
2021/09/13 01:29:39;;;;;;;16.55;8.52;;;15.00;92.50;;;;;;4974754;28;20182;-89
2021/09/13 01:32:11;;;;;;;16.58;7.68;;;15.00;92.40;;;;;;4975082;28;20240;-89
2021/09/13 01:34:37;;;;;;;14.10;8.38;;;14.90;92.40;;;;;;4973524;28;20235;-89
2021/09/13 01:37:08;;;;;;;17.33;8.27;;;15.00;92.50;;;;;;4974873;28;20253;-89
2021/09/13 01:39:34;;;;;;;18.50;8.85;;;15.00;92.50;;;;;;4975409;28;20699;-88
2021/09/13 01:41:59;;;;;;;12.57;8.25;;;14.90;92.50;;;;;;4975122;28;20195;-88
2021/09/13 01:44:25;;;;;;;17.83;9.23;;;14.90;92.60;;;;;;4974066;28;20210;-89
2021/09/13 01:46:51;;;;;;;13.07;8.88;;;14.90;92.70;;;;;;4974582;28;20186;-89
2021/09/13 01:49:17;;;;;;;13.82;8.20;;;14.90;92.70;;;;;;4973625;28;20233;-89
2021/09/13 01:51:43;;;;;;;17.25;9.07;;;14.90;92.90;;;;;;4973153;28;20228;-89
2021/09/13 01:54:12;;;;;;;12.38;9.23;;;14.90;92.90;;;;;;4974138;28;20507;-88
2021/09/13 01:56:38;;;;;;;15.73;9.82;;;14.90;92.90;;;;;;4973873;28;20189;-89
2021/09/13 01:59:06;;;;;;;14.48;9.88;;;14.90;93.00;;;;;;4973285;28;20261;-88
2021/09/13 02:01:31;;;;;;;17.10;9.65;;;14.90;93.10;;;;;;4974503;28;20232;-89
2021/09/13 02:03:57;;;;;;;16.05;10.10;;;14.80;93.20;;;;;;4973165;28;20190;-89
2021/09/13 02:06:24;;;;;;;21.05;9.82;;;14.80;93.20;;;;;;4973433;28;20183;-89
2021/09/13 02:08:50;;;;;;;16.40;9.90;;;14.80;93.30;;;;;;4973557;28;20193;-88
2021/09/13 02:11:15;;;;;;;15.77;10.70;;;14.80;93.40;;;;;;4973278;28;20182;-88
2021/09/13 02:13:41;;;;;;;19.65;10.38;;;14.80;93.50;;;;;;4973242;28;20186;-89
2021/09/13 02:16:07;;;;;;;16.23;10.43;;;14.80;93.60;;;;;;4973427;28;20171;-89
2021/09/13 02:18:33;;;;;;;14.52;10.13;;;14.80;93.60;;;;;;4974373;28;20178;-88
2021/09/13 02:21:06;;;;;;;17.10;10.90;;;14.80;93.60;;;;;;4973432;28;20544;-89
2021/09/13 02:23:44;;;;;;;16.05;10.05;;;14.80;93.60;;;;;;4972875;28;20173;-88
2021/09/13 02:26:10;;;;;;;21.50;10.77;;;14.80;93.60;;;;;;4972732;28;20174;-89
2021/09/13 02:28:36;;;;;;;10.52;8.73;;;14.90;93.60;;;;;;4974153;28;20534;-88
2021/09/13 02:31:11;;;;;;;13.48;8.30;;;14.90;93.60;;;;;;4974077;28;20171;-89
2021/09/13 02:33:36;;;;;;;16.05;9.02;;;14.90;93.50;;;;;;4972867;28;20232;-89
2021/09/13 02:36:03;;;;;;;18.02;9.43;;;15.00;93.50;;;;;;4972808;28;20167;-89
2021/09/13 02:38:28;;;;;;;16.75;8.48;;;15.00;93.40;;;;;;4973088;28;20234;-89
2021/09/13 02:40:54;;;;;;;17.55;9.32;;;14.90;93.40;;;;;;4972662;28;20175;-89
2021/09/13 02:43:20;;;;;;;18.70;8.63;;;15.00;93.40;;;;;;4972513;28;20201;-89
2021/09/13 02:45:45;;;;;;;13.55;8.20;;;15.00;93.40;;;;;;4973564;28;20174;-89
2021/09/13 02:48:11;;;;;;;17.48;8.50;;;15.00;93.50;;;;;;4972433;28;20218;-89
2021/09/13 02:50:40;;;;;;;17.63;7.82;;;15.00;93.50;;;;;;4972297;28;20228;-89
2021/09/13 02:53:09;;;;;;;19.15;8.70;;;15.00;93.60;;;;;;4973717;28;20207;-89
2021/09/13 02:55:37;;;;;;;16.63;7.97;;;15.00;93.60;;;;;;4973497;28;20171;-89
2021/09/13 02:58:08;;;;;;;19.27;7.78;;;15.10;93.60;;;;;;4972225;28;20179;-89
2021/09/13 03:00:40;;;;;;;18.20;8.05;;;15.10;93.50;;;;;;4973504;28;20623;-89
2021/09/13 03:03:08;;;;;;;13.18;7.57;;;15.10;93.50;;;;;;4972143;28;20682;-89
2021/09/13 03:05:37;;;;;;;16.60;7.88;;;15.10;93.50;;;;;;4973088;28;20194;-89
2021/09/13 03:08:05;;;;;;;13.98;7.13;;;15.10;93.50;;;;;;4972238;28;20179;-89
2021/09/13 03:10:32;;;;;;;14.75;6.95;;;15.10;93.60;;;;;;4972760;28;20182;-89
2021/09/13 03:12:57;;;;;;;12.25;6.45;;;15.10;93.50;;;;;;4972150;28;20297;-89
2021/09/13 03:15:26;;;;;;;15.07;7.00;;;15.10;93.50;;;;;;4973421;28;20298;-89
2021/09/13 03:17:52;;;;;;;21.38;7.75;;;15.10;93.40;;;;;;4973213;28;20175;-88
2021/09/13 03:20:17;;;;;;;13.82;6.85;;;15.10;93.50;;;;;;4971875;28;20661;-89
2021/09/13 03:22:43;;;;;;;16.95;7.47;;;15.10;93.40;;;;;;4972927;28;20199;-89
2021/09/13 03:25:10;;;;;;;13.40;7.45;;;15.10;93.40;;;;;;4973286;28;20186;-89
2021/09/13 03:27:35;;;;;;;19.40;7.95;;;15.10;93.30;;;;;;4973065;28;20179;-89
2021/09/13 03:30:08;;;;;;;14.35;7.25;;;15.10;93.30;;;;;;4972506;28;20189;-89
2021/09/13 03:32:39;;;;;;;13.73;6.13;;;15.20;93.30;;;;;;4970449;28;20211;-89
2021/09/13 03:35:06;;;;;;;12.65;6.20;;;15.20;93.20;;;;;;4972123;28;20171;-89
2021/09/13 03:37:32;;;;;;;12.05;5.97;;;15.20;93.10;;;;;;4972787;28;20266;-89
2021/09/13 03:40:00;;;;;;;12.30;5.43;;;15.20;92.90;;;;;;4971885;28;20257;-89
2021/09/13 03:42:32;;;;;;;11.05;5.03;;;15.20;92.90;;;;;;4971522;28;20662;-89
2021/09/13 03:44:57;;;;;;;13.65;4.60;;;15.20;92.90;;;;;;4971623;28;20224;-89
2021/09/13 03:47:23;;;;;;;10.68;4.47;;;15.30;92.80;;;;;;4972677;28;20178;-89
2021/09/13 03:49:49;;;;;;;12.40;4.53;;;15.30;92.70;;;;;;4972729;28;20178;-88
2021/09/13 03:52:14;;;;;;;15.77;4.80;;;15.20;92.60;;;;;;4971152;28;20238;-89
2021/09/13 03:54:40;;;;;;;13.45;4.78;;;15.30;92.60;;;;;;4972632;28;20568;-89
2021/09/13 03:57:06;;;;;;;8.70;3.97;;;15.20;92.50;;;;;;4972524;28;20229;-89
2021/09/13 03:59:32;;;;;;;11.65;3.97;;;15.30;92.50;;;;;;4972568;28;20300;-89
2021/09/13 04:01:58;;;;;;;13.45;3.35;;;15.20;92.10;;;;;;4971292;28;20573;-89
2021/09/13 04:04:26;;;;;;;13.32;3.35;;;15.30;92.00;;;;;;4971632;28;20219;-89
2021/09/13 04:09:59;;;;;;;9.45;2.90;;;15.30;91.80;;;;;;4970020;28;20217;-89
2021/09/13 04:12:42;;;;;;;17.75;2.75;;;15.30;91.70;;;;;;4972700;28;20202;-89
2021/09/13 04:15:11;;;;;;;18.70;3.50;;;15.30;91.50;;;;;;4972989;28;20187;-89
2021/09/13 04:17:40;;;;;;;13.32;2.53;;;15.30;91.10;;;;;;4972262;28;20662;-89
2021/09/13 04:20:06;;;;;;;9.07;2.20;;;15.20;90.80;;;;;;4971320;28;20312;-89
2021/09/13 04:22:32;;;;;;;11.85;2.30;;;15.20;90.90;;;;;;4971308;28;20214;-89
2021/09/13 04:24:59;;;;;;;8.82;2.40;;;15.30;90.80;;;;;;4973491;28;20208;-89
2021/09/13 04:27:25;;;;;;;11.25;3.47;;;15.20;90.60;;;;;;4971579;28;20190;-89
2021/09/13 04:29:51;;;;;;;10.93;3.00;;;15.20;90.80;;;;;;4971675;28;20175;-89
2021/09/13 04:32:17;;;;;;;11.05;3.58;;;15.20;90.90;;;;;;4972404;28;20207;-89
2021/09/13 04:34:42;;;;;;;9.88;3.30;;;15.20;90.90;;;;;;4972037;28;20178;-89
2021/09/13 04:37:08;;;;;;;9.07;3.20;;;15.30;91.00;;;;;;4970984;28;20225;-89
2021/09/13 04:39:34;;;;;;;13.63;4.22;;;15.30;91.00;;;;;;4972153;28;20638;-89
2021/09/13 04:42:00;;;;;;;15.10;4.78;;;15.30;91.00;;;;;;4971135;28;20202;-89
2021/09/13 04:44:28;;;;;;;18.25;4.53;;;15.30;91.00;;;;;;4971697;28;20224;-89
2021/09/13 04:46:54;;;;;;;7.28;3.90;;;15.30;91.00;;;;;;4971397;28;20272;-89
2021/09/13 04:49:21;;;;;;;11.40;4.93;;;15.30;91.20;;;;;;4970537;28;20297;-89
2021/09/13 04:51:50;;;;;;;18.08;5.15;;;15.20;91.60;;;;;;4970707;28;20222;-89
2021/09/13 04:54:20;;;;;;;15.80;5.13;;;15.20;91.80;;;;;;4970733;28;20209;-89
2021/09/13 04:56:45;;;;;;;11.13;4.28;;;15.20;92.00;;;;;;4970463;28;20224;-89
2021/09/13 04:59:14;;;;;;;12.00;4.35;;;15.20;92.00;;;;;;4971368;28;20179;-89
2021/09/13 05:01:40;;;;;;;15.05;4.18;;;15.20;91.90;;;;;;4970344;28;20199;-89
2021/09/13 05:04:09;;;;;;;14.93;5.15;;;15.20;91.90;;;;;;4970355;28;20189;-89
2021/09/13 05:06:37;;;;;;;13.65;5.07;;;15.30;91.90;;;;;;4971769;28;20185;-89
2021/09/13 05:09:06;;;;;;;13.07;4.45;;;15.20;91.90;;;;;;4970561;28;20212;-89
2021/09/13 05:11:35;;;;;;;12.48;3.70;;;15.30;91.90;;;;;;4971757;28;20247;-89
2021/09/13 05:14:01;;;;;;;15.88;4.18;;;15.20;91.90;;;;;;4971895;28;20175;-89
2021/09/13 05:16:30;;;;;;;13.00;3.38;;;15.20;91.80;;;;;;4970213;28;20201;-89
2021/09/13 05:19:01;;;;;;;10.90;4.22;;;15.20;91.60;;;;;;4972041;28;20182;-89
2021/09/13 05:21:26;;;;;;;19.08;5.03;;;15.20;91.50;;;;;;4970076;28;20251;-89
2021/09/13 05:23:52;;;;;;;17.45;4.88;;;15.20;91.60;;;;;;4970214;28;20638;-89
2021/09/13 05:26:18;;;;;;;19.73;4.97;;;15.20;91.60;;;;;;4971349;28;20178;-89
2021/09/13 05:28:44;;;;;;;8.05;3.97;;;15.20;91.60;;;;;;4971391;28;20544;-89
2021/09/13 05:31:18;;;;;;;14.80;3.92;;;15.20;91.50;;;;;;4970276;28;20224;-89
2021/09/13 05:33:43;;;;;;;15.75;3.63;;;15.20;91.40;;;;;;4970763;28;20228;-89
2021/09/13 05:36:09;;;;;;;9.60;3.38;;;15.20;90.90;;;;;;4971287;28;20175;-89
2021/09/13 05:38:36;;;;;;;13.90;4.05;;;15.20;90.90;;;;;;4971546;28;20170;-89
2021/09/13 05:41:02;;;;;;;13.85;4.05;;;15.20;90.90;;;;;;4970356;28;20178;-89
2021/09/13 05:43:27;;;;;;;12.85;3.30;;;15.20;90.90;;;;;;4971499;28;20185;-89
2021/09/13 05:45:54;;;;;;;12.07;3.55;;;15.20;90.20;;;;;;4970062;28;20179;-88
2021/09/13 05:48:20;;;;;;;12.68;3.28;;;15.10;90.00;;;;;;4970529;28;20555;-88
2021/09/13 05:50:46;;;;;;;9.77;2.67;;;15.20;90.10;;;;;;4970152;28;20178;-88
2021/09/13 05:53:12;;;;;;;15.73;2.75;;;15.20;90.00;;;;;;4971295;28;20233;-88
2021/09/13 05:55:42;;;;;;;13.55;4.13;;;15.20;89.90;;;;;;4971977;28;20183;-88
2021/09/13 05:58:09;;;;;;;16.70;2.80;;;15.20;89.20;;;;;;4973440;28;20202;-89
2021/09/13 06:00:34;;;;;;;9.23;2.65;;;15.20;88.90;;;;;;4973184;28;20179;-88
2021/09/13 06:03:00;;;;;;;12.65;2.92;;;15.20;88.20;;;;;;4973048;28;20206;-88
2021/09/13 06:05:26;;;;;;;9.23;3.00;;;15.20;87.90;;;;;;4974242;28;20650;-88
2021/09/13 06:07:52;;;;;;;9.65;2.50;;;15.20;88.00;;;;;;4973995;28;20183;-88
2021/09/13 06:10:17;;;;;;;17.45;2.78;;;15.20;88.20;;;;;;4974445;28;20232;-88
2021/09/13 06:12:43;;;;;;;7.47;2.38;;;15.20;88.50;;;;;;4973265;28;20210;-89
2021/09/13 06:15:09;;;;;;;11.35;2.78;;;15.30;88.70;;;;;;4973220;28;20210;-89
2021/09/13 06:17:35;;;;;;;11.27;2.33;;;15.20;88.50;;;;;;4973544;28;20183;-88
2021/09/13 06:20:01;;;;;;;8.88;2.53;;;15.30;88.60;;;;;;4974850;28;20231;-88
2021/09/13 06:22:27;;;;;;;12.90;3.03;;;15.30;88.60;;;;;;4973437;28;20209;-88
2021/09/13 06:24:52;;;;;;;12.90;3.03;;;15.30;88.70;;;;;;4975143;28;20250;-88
2021/09/13 06:27:18;;;;;;;14.90;3.03;;;15.30;88.80;;;;;;4974410;28;20175;-89
2021/09/13 06:29:49;;;;;;;10.75;2.60;;;15.30;88.70;;;;;;4972805;28;20182;-88
2021/09/13 06:32:17;;;;;;;13.48;2.78;;;15.30;88.60;;;;;;4974082;28;20642;-87
2021/09/13 06:34:43;;;;;;;14.90;3.17;;;15.30;88.30;;;;;;4972752;28;20175;-87
2021/09/13 06:37:08;;;;;;;10.25;2.67;;;15.30;88.20;;;;;;4972623;28;20181;-87
2021/09/13 06:39:34;;;;;;;16.40;3.97;;;15.40;88.10;;;;;;4972715;28;20265;-87
2021/09/13 06:42:00;;;;;;;10.52;3.05;;;15.40;88.00;;;;;;4972731;28;20207;-87
2021/09/13 06:44:26;;;;;;;13.35;2.65;;;15.40;88.50;;;;;;4973960;28;20174;-87
2021/09/13 06:47:10;;;;;;;20.60;3.50;;;15.40;88.50;;;;;;4972529;28;20225;-87
2021/09/13 06:49:37;;;;;;;10.25;2.90;;;15.40;88.70;;;;;;4974154;28;20151;-87
2021/09/13 06:52:04;;;;;;;14.30;2.90;;;15.40;88.20;;;;;;4972271;28;20222;-87
2021/09/13 06:54:30;;;;;;;14.77;2.67;;;15.40;88.20;;;;;;4973399;28;20232;-87
2021/09/13 06:56:58;;;;;;;12.50;2.75;;;15.40;87.90;;;;;;4972550;28;20179;-87
2021/09/13 06:59:24;;;;;;;14.20;2.97;;;15.50;87.80;;;;;;4972683;28;20175;-87
2021/09/13 07:01:50;;;;;;;11.00;2.60;;;15.40;87.90;;;;;;4972403;28;20206;-88
2021/09/13 07:04:16;;;;;;;11.45;2.25;;;15.50;87.70;;;;;;4972753;28;20179;-88
2021/09/13 07:06:41;;;;;;;16.23;2.85;;;15.50;87.40;;;;;;4973806;28;20173;-88
2021/09/13 07:09:07;;;;;;;15.68;3.22;;;15.50;86.60;;;;;;4973672;28;20179;-88
2021/09/13 07:11:33;;;;;;;15.88;2.70;;;15.50;87.00;;;;;;4972183;28;20195;-88
2021/09/13 07:13:58;;;;;;;11.05;2.75;;;15.50;86.80;;;;;;4972529;28;20179;-88
2021/09/13 07:16:24;;;;;;;9.02;2.50;;;15.60;87.20;;;;;;4973681;28;20178;-88
2021/09/13 07:18:50;;;;;;;14.40;2.78;;;15.50;86.50;;;;;;4972425;28;20179;-88
2021/09/13 07:21:16;;;;;;;15.88;2.70;;;15.50;86.80;;;;;;4973461;28;20618;-88
2021/09/13 07:23:42;;;;;;;17.98;3.10;;;15.60;86.50;;;;;;4972876;28;20630;-88
2021/09/13 07:26:08;;;;;;;9.55;2.70;;;15.60;86.40;;;;;;4973582;28;20183;-88
2021/09/13 07:28:34;;;;;;;8.40;2.00;;;15.60;86.30;;;;;;4971931;28;20186;-88
2021/09/13 07:30:59;;;;;;;15.05;2.78;;;15.60;86.10;;;;;;4972001;28;20182;-88
2021/09/13 07:33:25;;;;;;;14.70;2.80;;;15.60;86.10;;;;;;4971945;28;20664;-88
2021/09/13 07:35:51;;;;;;;11.25;2.38;;;15.50;85.90;;;;;;4971927;28;20178;-88
2021/09/13 07:38:17;;;;;;;14.82;3.30;;;15.50;85.90;;;;;;4972166;28;20698;-89
2021/09/13 07:40:43;;;;;;;13.10;2.90;;;15.50;85.80;;;;;;4973091;28;20631;-88
2021/09/13 07:43:09;;;;;;;13.18;2.83;;;15.60;85.70;;;;;;4971808;28;20199;-88
2021/09/13 07:45:36;;;;;;;14.35;2.53;;;15.60;85.90;;;;;;4971705;28;20179;-88
2021/09/13 07:48:02;;;;;;;11.82;2.65;;;15.60;85.80;;;;;;4972745;28;20531;-88
2021/09/13 07:50:27;;;;;;;17.58;2.95;;;15.70;86.30;;;;;;4971799;28;20198;-88
2021/09/13 07:52:53;;;;;;;19.88;3.85;;;15.70;85.70;;;;;;4972515;28;20203;-88
2021/09/13 07:55:18;;;;;;;21.77;3.90;;;15.80;86.00;;;;;;4971663;28;20273;-88
2021/09/13 07:57:44;;;;;;;16.92;3.28;;;15.80;86.10;;;;;;4972933;28;20257;-88
2021/09/13 08:00:10;;;;;;;19.25;3.00;;;15.90;85.60;;;;;;4971587;28;20202;-88
2021/09/13 08:02:36;;;;;;;21.58;3.08;;;15.90;85.80;;;;;;4971716;28;20206;-88
2021/09/13 08:05:01;;;;;;;11.98;2.70;;;15.90;85.90;;;;;;4971799;28;20212;-88
2021/09/13 08:07:27;;;;;;;10.07;2.55;;;16.00;84.40;;;;;;4971652;28;20182;-87
2021/09/13 08:09:53;;;;;;;16.25;3.25;;;15.90;84.10;;;;;;4972847;28;20223;-88
2021/09/13 08:12:18;;;;;;;9.25;2.85;;;16.00;84.30;;;;;;4971384;28;20229;-87
2021/09/13 08:14:44;;;;;;;13.98;3.38;;;16.00;84.30;;;;;;4971776;28;20252;-87
2021/09/13 08:17:10;;;;;;;13.98;2.75;;;16.00;83.90;;;;;;4970856;28;20525;-87
2021/09/13 08:19:40;;;;;;;14.88;3.38;;;16.20;85.30;;;;;;4971224;28;20198;-87
2021/09/13 08:22:08;;;;;;;16.17;2.78;;;16.10;84.70;;;;;;4971363;28;20663;-87
2021/09/13 08:24:34;;;;;;;14.13;3.45;;;16.20;85.10;;;;;;4971212;28;20182;-87
2021/09/13 08:27:00;;;;;;;9.20;2.60;;;16.20;84.80;;;;;;4971145;28;20186;-87
2021/09/13 08:29:26;;;;;;;11.30;2.60;;;16.20;84.10;;;;;;4972704;28;20172;-87
2021/09/13 08:31:53;;;;;;;13.13;2.28;;;16.20;84.30;;;;;;4972147;28;20210;-87
2021/09/13 08:34:19;;;;;;;12.73;3.05;;;16.20;83.70;;;;;;4971047;28;20179;-87
2021/09/13 08:36:45;;;;;;;17.25;2.63;;;16.20;83.90;;;;;;4970998;28;20175;-88
2021/09/13 08:39:11;;;;;;;11.43;2.70;;;16.20;83.80;;;;;;4972203;28;20250;-89
2021/09/13 08:41:37;;;;;;;10.27;2.45;;;16.30;83.90;;;;;;4972072;28;20269;-88
2021/09/13 08:44:06;;;;;;;10.52;1.90;;;16.30;83.60;;;;;;4971959;28;20261;-90
2021/09/13 08:46:39;;;;;;;16.00;3.33;;;16.40;83.40;;;;;;4971177;28;20179;-88
2021/09/13 08:49:08;;;;;;;9.55;2.10;;;16.40;82.60;;;;;;4971963;28;20201;-89
2021/09/13 08:51:34;;;;;;;9.55;2.15;;;16.40;83.30;;;;;;4971880;28;20210;-89
2021/09/13 08:54:05;;;;;;;9.57;1.83;;;16.50;82.80;;;;;;4970737;28;20185;-88
2021/09/13 08:56:40;;;;;;;13.13;2.08;;;16.50;83.00;;;;;;4971954;28;20238;-88
2021/09/13 08:59:14;;;;;;;6.05;2.22;;;16.50;83.00;;;;;;4972140;28;20167;-89
2021/09/13 09:01:40;;;;;;;5.65;1.80;;;16.50;83.00;;;;;;4971844;28;20319;-88
2021/09/13 09:04:07;;;;;;;9.00;2.65;;;16.50;82.30;;;;;;4971745;28;20195;-87
2021/09/13 09:06:38;;;;;;;6.88;2.00;;;16.30;81.90;;;;;;4970701;28;20264;-88
2021/09/13 09:09:14;;;;;;;12.73;2.13;;;16.40;82.90;;;;;;4972040;28;20160;-88
2021/09/13 09:12:00;;;;;;;8.30;2.17;;;16.50;82.50;;;;;;4971973;28;20194;-88
2021/09/13 09:14:39;;;;;;;8.65;2.50;;;16.50;82.10;;;;;;4970722;28;20202;-88
2021/09/13 09:17:08;;;;;;;9.52;2.00;;;16.50;81.70;;;;;;4970485;28;20198;-89
2021/09/13 09:19:35;;;;;;;7.47;2.20;;;16.50;82.60;;;;;;4971538;28;20175;-89
2021/09/13 09:22:21;;;;;;;11.95;2.72;;;16.50;83.10;;;;;;4970269;28;20209;-89
2021/09/13 09:24:48;;;;;;;9.00;1.80;;;16.50;83.40;;;;;;4971195;28;20270;-89
2021/09/13 09:27:14;;;;;;;6.00;2.45;;;16.50;83.90;;;;;;4971661;28;20749;-88
2021/09/13 09:29:40;;;;;;;8.77;1.90;;;16.50;84.10;;;;;;4972630;28;20182;-88
2021/09/13 09:32:06;;;;;;;8.00;2.13;;;16.50;83.70;;;;;;4973643;28;20268;-89
2021/09/13 09:34:36;;;;;;;8.90;2.05;;;16.60;83.70;;;;;;4973730;28;20175;-89
2021/09/13 09:37:09;;;;;;;7.65;1.85;;;16.50;83.00;;;;;;4973665;28;20183;-89
2021/09/13 09:39:49;;;;;;;5.93;1.88;;;16.30;82.80;;;;;;4973764;28;20276;-89
2021/09/13 09:42:36;;;;;;;11.13;1.80;;;16.20;82.30;;;;;;4973836;28;20674;-89
2021/09/13 09:45:23;;;;;;;9.68;1.88;;;16.30;82.50;;;;;;4973868;28;20186;-88
2021/09/13 09:48:09;;;;;;;9.05;2.58;;;16.30;82.40;;;;;;4972817;28;20194;-88
2021/09/13 09:50:35;;;;;;;7.55;2.58;;;16.30;82.80;;;;;;4973160;28;20555;-89
2021/09/13 09:53:18;;;;;;;9.02;2.03;;;16.40;82.90;;;;;;4973084;28;20691;-88
2021/09/13 09:55:49;;;;;;;11.05;1.80;;;16.50;83.00;;;;;;4974245;28;20159;-88
2021/09/13 09:58:14;;;;;;;10.23;2.45;;;16.60;83.00;;;;;;4974261;28;20190;-88
2021/09/13 10:00:43;;;;;;;9.27;2.50;;;16.50;82.20;;;;;;4973047;28;20206;-88
2021/09/13 10:03:09;;;;;;;7.45;2.08;;;16.70;83.00;;;;;;4974135;28;20199;-89
2021/09/13 10:05:35;;;;;;;5.97;2.08;;;16.70;81.60;;;;;;4973137;28;20551;-89
2021/09/13 10:08:01;;;;;;;9.73;2.10;;;16.80;81.80;;;;;;4974208;28;20223;-88
2021/09/13 10:10:29;;;;;;;7.18;1.77;;;16.90;80.80;;;;;;4972885;28;20183;-88
2021/09/13 10:12:56;;;;;;;12.55;2.30;;;17.10;80.10;;;;;;4973085;28;20295;-88
2021/09/13 10:15:22;;;;;;;9.77;2.15;;;17.20;81.10;;;;;;4973868;28;20273;-88
2021/09/13 10:17:48;;;;;;;9.60;2.55;;;17.20;79.40;;;;;;4973102;28;20263;-88
2021/09/13 10:20:14;;;;;;;9.07;2.20;;;17.10;79.10;;;;;;4974099;28;20167;-88
2021/09/13 10:22:46;;;;;;;8.65;2.08;;;17.10;78.40;;;;;;4974121;28;20203;-88
2021/09/13 10:25:13;;;;;;;9.52;2.80;;;17.10;79.40;;;;;;4973032;28;20258;-88
2021/09/13 10:27:47;;;;;;;12.68;2.47;;;17.00;79.90;;;;;;4972870;28;20183;-88
2021/09/13 10:30:19;;;;;;;4.88;1.85;;;17.20;80.40;;;;;;4974154;28;20161;-89
2021/09/13 10:32:48;;;;;;;8.93;2.10;;;17.30;79.10;;;;;;4972602;28;20207;-88
2021/09/13 10:35:17;;;;;;;7.70;1.73;;;17.40;79.30;;;;;;4974008;28;20171;-88
2021/09/13 10:37:51;;;;;;;8.82;1.75;;;17.50;77.80;;;;;;4974130;28;20175;-88
2021/09/13 10:40:16;;;;;;;16.50;2.67;;;17.50;79.60;;;;;;4972240;28;20224;-88
2021/09/13 10:42:47;;;;;;;6.82;2.10;;;17.50;79.70;;;;;;4972617;28;20198;-89
2021/09/13 10:45:14;;;;;;;5.82;1.70;;;17.70;79.10;;;;;;4972811;28;20178;-89
2021/09/13 10:47:46;;;;;;;9.23;2.25;;;17.80;78.70;;;;;;4973139;28;20175;-90
2021/09/13 10:50:12;;;;;;;9.07;2.30;;;18.20;78.80;;;;;;4973511;28;20225;-89
2021/09/13 10:52:38;;;;;;;6.60;1.70;;;18.40;78.60;;;;;;4972377;28;20686;-89
2021/09/13 10:55:11;;;;;;;12.45;2.15;;;18.70;76.90;;;;;;4972419;28;20179;-90
2021/09/13 10:57:56;;;;;;;8.77;1.70;;;18.50;75.70;;;;;;4972373;28;20193;-89
2021/09/13 11:00:38;;;;;;;8.38;2.15;;;18.60;75.00;;;;;;4973694;28;20737;-89
2021/09/13 11:03:22;;;;;;;4.68;1.75;;;18.60;75.70;;;;;;4972554;28;20208;-89
2021/09/13 11:06:06;;;;;;;4.57;1.52;;;18.20;75.50;;;;;;4972994;28;20179;-89
2021/09/13 11:08:45;;;;;;;4.57;1.70;;;18.10;75.10;;;;;;4972651;28;20187;-89
2021/09/13 11:11:13;;;;;;;6.70;1.80;;;18.20;74.50;;;;;;4973911;28;20544;-89
2021/09/13 11:13:40;;;;;;;6.63;1.45;;;18.00;73.80;;;;;;4972486;28;20229;-88
2021/09/13 11:16:07;;;;;;;7.43;1.77;;;18.00;75.30;;;;;;4973042;28;20591;-88
2021/09/13 11:18:41;;;;;;;5.38;1.30;;;17.90;75.70;;;;;;4973371;28;20182;-88
2021/09/13 11:21:19;;;;;;;5.78;1.77;;;18.00;75.90;;;;;;4973297;28;20166;-88
2021/09/13 11:23:53;;;;;;;3.45;1.45;;;18.00;76.10;;;;;;4972355;28;20272;-88
2021/09/13 11:26:30;;;;;;;6.00;1.50;;;17.80;75.80;;;;;;4972189;28;20174;-89
2021/09/13 11:29:05;;;;;;;5.38;1.40;;;17.80;76.50;;;;;;4973641;28;20631;-89
2021/09/13 11:31:44;;;;;;;6.18;1.40;;;17.80;75.80;;;;;;4973122;28;20678;-89
2021/09/13 11:34:15;;;;;;;6.00;1.70;;;17.80;75.50;;;;;;4971979;28;20212;-88
2021/09/13 11:36:57;;;;;;;9.45;1.70;;;17.90;75.80;;;;;;4971932;28;20211;-88
2021/09/13 11:39:24;;;;;;;5.18;1.50;;;18.00;75.50;;;;;;4973142;28;20151;-88
2021/09/13 11:42:01;;;;;;;6.50;2.00;;;18.00;75.40;;;;;;4973303;28;20202;-88
2021/09/13 11:44:28;;;;;;;8.82;2.20;;;18.00;76.30;;;;;;4971904;28;20175;-88
2021/09/13 11:46:59;;;;;;;7.22;2.00;;;18.10;76.20;;;;;;4973053;28;20179;-89
2021/09/13 11:49:29;;;;;;;7.30;1.88;;;18.10;76.30;;;;;;4972008;28;20592;-89
2021/09/13 11:52:04;;;;;;;5.70;1.42;;;18.40;75.00;;;;;;4971232;28;20229;-89
2021/09/13 11:54:31;;;;;;;7.05;1.63;;;18.60;75.00;;;;;;4971403;28;20194;-89
2021/09/13 11:56:56;;;;;;;5.70;1.83;;;19.20;76.40;;;;;;4972693;28;20631;-89
2021/09/13 11:59:24;;;;;;;6.53;1.52;;;19.20;74.80;;;;;;4971825;28;20183;-89
2021/09/13 12:01:58;;;;;;;9.55;1.98;;;19.40;72.10;;;;;;4971540;28;20678;-88
2021/09/13 12:04:25;;;;;;;8.25;2.05;;;19.20;73.60;;;;;;4971558;28;20171;-89
2021/09/13 12:07:12;;;;;;;3.47;0.95;;;19.20;70.70;;;;;;4973051;28;20167;-88
2021/09/13 12:09:44;;;;;;;5.47;1.50;;;18.60;72.60;;;;;;4971438;28;20175;-87
2021/09/13 12:12:14;;;;;;;4.07;1.40;;;18.50;72.00;;;;;;4972460;28;20348;-88
2021/09/13 12:14:42;;;;;;;3.13;1.05;;;18.50;71.80;;;;;;4971665;28;20584;-88
2021/09/13 12:17:10;;;;;;;4.07;1.02;;;18.40;71.90;;;;;;4972639;28;20171;-88
2021/09/13 12:19:48;;;;;;;6.22;1.50;;;18.30;72.20;;;;;;4972583;28;20257;-88
2021/09/13 12:22:15;;;;;;;6.70;1.55;;;18.20;73.80;;;;;;4971807;28;20202;-87
2021/09/13 12:24:43;;;;;;;4.43;1.50;;;18.00;72.10;;;;;;4971278;28;20599;-88
2021/09/13 12:27:22;;;;;;;7.20;1.65;;;18.00;73.10;;;;;;4972496;28;20170;-88
2021/09/13 12:30:00;;;;;;;6.05;1.20;;;18.10;73.70;;;;;;4971041;28;20555;-89
2021/09/13 12:32:32;;;;;;;8.70;2.00;;;17.90;72.90;;;;;;4970848;28;20216;-88
2021/09/13 12:35:07;;;;;;;5.38;1.65;;;18.00;72.70;;;;;;4970959;28;20170;-89
2021/09/13 12:37:39;;;;;;;7.00;1.55;;;18.00;73.10;;;;;;4971519;28;20167;-88
2021/09/13 12:40:12;;;;;;;3.83;1.33;;;18.10;72.80;;;;;;4971019;28;20167;-88
2021/09/13 12:43:03;;;;;;;5.20;1.40;;;18.20;71.70;;;;;;4971935;28;20199;-88
2021/09/13 12:45:31;;;;;;;8.15;1.98;;;18.20;71.60;;;;;;4970881;28;20627;-88
2021/09/13 12:48:02;;;;;;;7.20;1.33;;;18.10;73.50;;;;;;4971322;28;20182;-88
2021/09/13 12:50:35;;;;;;;3.20;1.35;;;18.10;72.80;;;;;;4972371;28;20199;-88